Time;durP1;ratioP1;P1;durP2;ratioP2;P2;SDS_P1;SDS_P2;PMS_P1;PMS_P2;Temp;Humidity;BMP_temperature;BMP_pressure;BME280_temperature;BME280_humidity;BME280_pressure;Samples;Min_cycle;Max_cycle;Signal;HPM_P1;HPM_P2
2021/04/09 00:01:43;;;;;;;8.50;6.60;;;2.90;99.90;;;;;;5027712;28;20755;-83
2021/04/09 00:04:12;;;;;;;8.25;6.80;;;2.80;99.90;;;;;;5027860;28;20413;-83
2021/04/09 00:06:37;;;;;;;10.90;6.85;;;2.80;99.90;;;;;;5028367;28;20436;-83
2021/04/09 00:09:10;;;;;;;10.35;7.70;;;2.80;99.90;;;;;;5029793;28;20816;-83
2021/04/09 00:11:36;;;;;;;10.52;6.88;;;2.80;99.90;;;;;;5038857;28;20374;-83
2021/04/09 00:14:03;;;;;;;9.02;6.93;;;2.70;99.90;;;;;;5028370;28;20893;-83
2021/04/09 00:16:29;;;;;;;10.45;7.20;;;2.70;99.90;;;;;;5029641;28;20416;-84
2021/04/09 00:18:55;;;;;;;9.77;7.30;;;2.70;99.90;;;;;;5027745;28;20365;-83
2021/04/09 00:21:20;;;;;;;10.17;6.87;;;2.70;99.90;;;;;;5027224;28;20780;-83
2021/04/09 00:23:46;;;;;;;10.60;7.23;;;2.70;99.90;;;;;;5029664;28;20875;-83
2021/04/09 00:26:12;;;;;;;11.27;6.83;;;2.60;99.90;;;;;;5029140;28;20374;-83
2021/04/09 00:28:37;;;;;;;8.07;6.80;;;2.60;99.90;;;;;;5029885;28;20389;-83
2021/04/09 00:31:05;;;;;;;10.38;7.57;;;2.60;99.90;;;;;;5030166;28;20388;-83
2021/04/09 00:33:30;;;;;;;9.02;6.80;;;2.60;99.90;;;;;;5030150;28;20380;-83
2021/04/09 00:35:56;;;;;;;8.05;6.75;;;2.60;99.90;;;;;;5030180;28;20377;-84
2021/04/09 00:38:21;;;;;;;8.43;6.97;;;2.60;99.90;;;;;;5029779;28;20416;-83
2021/04/09 00:40:47;;;;;;;9.60;6.97;;;2.70;99.90;;;;;;5030193;28;20856;-83
2021/04/09 00:43:13;;;;;;;9.43;7.07;;;2.60;99.90;;;;;;5030270;28;20412;-83
2021/04/09 00:45:38;;;;;;;9.68;6.75;;;2.60;99.90;;;;;;5030232;28;20373;-83
2021/04/09 00:48:05;;;;;;;9.02;6.85;;;2.60;99.90;;;;;;5029739;28;20381;-83
2021/04/09 00:50:32;;;;;;;9.52;6.68;;;2.60;99.90;;;;;;5029921;28;20385;-83
2021/04/09 00:53:00;;;;;;;10.25;6.72;;;2.50;99.90;;;;;;5028829;28;20786;-83
2021/04/09 00:55:28;;;;;;;10.95;6.95;;;2.50;99.90;;;;;;5028724;28;20365;-83
2021/04/09 00:57:57;;;;;;;9.90;7.17;;;2.40;99.90;;;;;;5029565;28;20844;-83
2021/04/09 01:00:23;;;;;;;9.25;7.03;;;2.30;99.90;;;;;;5028764;28;20377;-83
2021/04/09 01:02:49;;;;;;;9.32;6.60;;;2.30;99.90;;;;;;5030029;28;20771;-83
2021/04/09 01:05:16;;;;;;;10.45;7.00;;;2.30;99.90;;;;;;5030231;28;20373;-83
2021/04/09 01:07:43;;;;;;;9.98;7.30;;;2.20;99.90;;;;;;5028247;28;20388;-83
2021/04/09 01:10:10;;;;;;;11.23;7.55;;;2.20;99.90;;;;;;5029740;28;20451;-83
2021/04/09 01:12:36;;;;;;;10.57;7.20;;;2.20;99.90;;;;;;5028472;28;20380;-83
2021/04/09 01:15:02;;;;;;;12.23;7.00;;;2.20;99.90;;;;;;5031319;28;20377;-82
2021/04/09 01:17:37;;;;;;;10.38;7.13;;;2.30;99.90;;;;;;5033219;28;20388;-84
2021/04/09 01:20:06;;;;;;;13.00;7.45;;;2.20;99.90;;;;;;5032599;28;20377;-83
2021/04/09 01:22:45;;;;;;;8.80;6.85;;;2.20;99.90;;;;;;5032382;28;20374;-84
2021/04/09 01:25:20;;;;;;;10.10;7.38;;;2.10;99.90;;;;;;5033316;28;20874;-83
2021/04/09 01:28:23;;;;;;;9.60;7.10;;;2.10;99.90;;;;;;5033091;28;20366;-83
2021/04/09 01:31:22;;;;;;;11.20;7.47;;;2.10;99.90;;;;;;5031900;28;20389;-83
2021/04/09 01:33:51;;;;;;;9.75;7.20;;;2.10;99.90;;;;;;5024824;28;20407;-83
2021/04/09 01:36:25;;;;;;;9.90;6.93;;;2.10;99.90;;;;;;5031755;28;20459;-83
2021/04/09 01:39:05;;;;;;;9.85;7.25;;;2.10;99.90;;;;;;5031748;28;20384;-84
2021/04/09 01:41:31;;;;;;;9.87;7.23;;;2.10;99.90;;;;;;5033277;28;20377;-83
2021/04/09 01:44:01;;;;;;;11.02;7.15;;;2.10;99.90;;;;;;5033166;28;20377;-83
2021/04/09 01:46:27;;;;;;;11.90;7.70;;;2.10;99.90;;;;;;5033327;28;20373;-83
2021/04/09 01:48:54;;;;;;;12.50;7.65;;;2.10;99.90;;;;;;5032985;28;20439;-83
2021/04/09 01:51:20;;;;;;;10.40;7.18;;;2.10;99.90;;;;;;5031568;28;20724;-84
2021/04/09 01:53:47;;;;;;;10.20;6.95;;;2.10;99.90;;;;;;5031898;28;20385;-84
2021/04/09 01:56:15;;;;;;;11.98;7.35;;;2.10;99.90;;;;;;5033436;28;20435;-83
2021/04/09 01:58:42;;;;;;;9.85;6.90;;;2.10;99.90;;;;;;5031102;28;20404;-83
2021/04/09 02:01:10;;;;;;;11.00;7.10;;;2.10;99.90;;;;;;5031529;28;20373;-83
2021/04/09 02:03:37;;;;;;;11.63;7.55;;;2.20;99.90;;;;;;5032765;28;20465;-84
2021/04/09 02:06:05;;;;;;;13.13;7.47;;;2.10;99.90;;;;;;5034858;28;20471;-83
2021/04/09 02:08:34;;;;;;;9.32;6.53;;;2.10;99.90;;;;;;5032725;28;20434;-84
2021/04/09 02:11:00;;;;;;;9.30;6.97;;;2.10;99.90;;;;;;5032116;28;20488;-84
2021/04/09 02:13:28;;;;;;;11.73;7.78;;;2.20;99.90;;;;;;5033084;28;20370;-83
2021/04/09 02:15:57;;;;;;;11.23;6.88;;;2.20;99.90;;;;;;5032055;28;20378;-83
2021/04/09 02:18:24;;;;;;;8.15;6.78;;;2.20;99.90;;;;;;5032819;28;20389;-84
2021/04/09 02:20:50;;;;;;;12.20;7.30;;;2.20;99.90;;;;;;5033012;28;20389;-84
2021/04/09 02:23:16;;;;;;;12.23;7.40;;;2.20;99.90;;;;;;5033032;28;20388;-84
2021/04/09 02:25:42;;;;;;;9.30;6.68;;;2.30;99.90;;;;;;5033003;28;20384;-84
2021/04/09 02:28:08;;;;;;;10.75;7.28;;;2.30;99.90;;;;;;5030424;28;20385;-84
2021/04/09 02:30:33;;;;;;;13.47;7.13;;;2.30;99.90;;;;;;5033071;28;20405;-84
2021/04/09 02:32:59;;;;;;;11.00;6.93;;;2.20;99.90;;;;;;5031392;28;20378;-84
2021/04/09 02:35:25;;;;;;;11.15;7.25;;;2.20;99.90;;;;;;5033248;28;20443;-84
2021/04/09 02:37:51;;;;;;;9.90;7.30;;;2.20;99.90;;;;;;5031228;28;20378;-84
2021/04/09 02:40:22;;;;;;;11.30;6.80;;;2.20;99.90;;;;;;5031698;28;20385;-84
2021/04/09 02:42:50;;;;;;;10.32;6.88;;;2.20;99.90;;;;;;5032895;28;20412;-84
2021/04/09 02:45:18;;;;;;;10.80;7.53;;;2.20;99.90;;;;;;5031539;28;20381;-83
2021/04/09 02:47:44;;;;;;;11.93;7.50;;;2.30;99.90;;;;;;5033747;28;20390;-83
2021/04/09 02:50:46;;;;;;;9.82;7.32;;;2.20;99.90;;;;;;5035043;28;20389;-83
2021/04/09 02:53:19;;;;;;;12.63;7.35;;;2.20;99.90;;;;;;4996178;28;20475;-83
2021/04/09 02:55:46;;;;;;;9.97;7.83;;;2.20;99.90;;;;;;5027444;28;20374;-83
2021/04/09 02:58:14;;;;;;;12.02;7.88;;;2.20;99.90;;;;;;5034101;28;20778;-83
2021/04/09 03:00:45;;;;;;;10.55;7.68;;;2.20;99.90;;;;;;5031764;28;20436;-83
2021/04/09 03:03:12;;;;;;;10.83;7.80;;;2.20;99.90;;;;;;5030463;28;20878;-83
2021/04/09 03:05:39;;;;;;;10.97;7.70;;;2.20;99.90;;;;;;5031782;28;20427;-84
2021/04/09 03:08:06;;;;;;;11.60;7.78;;;2.10;99.90;;;;;;5029573;28;20385;-83
2021/04/09 03:10:31;;;;;;;11.02;8.10;;;2.10;99.90;;;;;;5030392;28;20397;-83
2021/04/09 03:12:58;;;;;;;12.60;8.20;;;2.20;99.90;;;;;;5031360;28;20848;-83
2021/04/09 03:15:26;;;;;;;13.60;8.27;;;2.10;99.90;;;;;;5031657;28;20389;-83
2021/04/09 03:17:56;;;;;;;13.43;8.18;;;2.20;99.90;;;;;;5030061;28;20479;-83
2021/04/09 03:20:23;;;;;;;12.40;8.15;;;2.10;99.90;;;;;;5031759;28;20377;-84
2021/04/09 03:22:48;;;;;;;11.25;8.35;;;2.10;99.90;;;;;;5031822;28;21172;-83
2021/04/09 03:25:14;;;;;;;13.57;8.13;;;2.10;99.90;;;;;;5030666;28;20484;-83
2021/04/09 03:27:40;;;;;;;13.50;8.68;;;2.10;99.90;;;;;;5030475;28;20732;-84
2021/04/09 03:30:06;;;;;;;13.73;8.63;;;2.00;99.90;;;;;;5031646;28;20393;-84
2021/04/09 03:32:32;;;;;;;15.00;8.90;;;2.00;99.90;;;;;;5031373;28;20381;-84
2021/04/09 03:34:58;;;;;;;12.03;8.23;;;1.90;99.90;;;;;;5031822;28;20373;-83
2021/04/09 03:37:23;;;;;;;12.27;8.53;;;1.90;99.90;;;;;;5030888;28;20373;-84
2021/04/09 03:39:49;;;;;;;10.55;8.32;;;1.80;99.90;;;;;;5030797;28;20381;-84
2021/04/09 03:42:14;;;;;;;11.75;8.45;;;1.80;99.90;;;;;;5030054;28;20410;-83
2021/04/09 03:44:40;;;;;;;11.10;8.07;;;1.80;99.90;;;;;;5031219;28;20452;-84
2021/04/09 03:47:05;;;;;;;12.13;8.63;;;1.80;99.90;;;;;;5030947;28;20382;-83
2021/04/09 03:49:31;;;;;;;11.53;8.20;;;1.80;99.90;;;;;;5029855;28;20404;-83
2021/04/09 03:51:57;;;;;;;12.88;8.30;;;1.80;99.90;;;;;;5031613;28;20376;-83
2021/04/09 03:54:22;;;;;;;11.27;8.15;;;1.70;99.90;;;;;;5030727;28;20381;-84
2021/04/09 03:56:48;;;;;;;12.65;8.10;;;1.70;99.90;;;;;;5029988;28;20381;-83
2021/04/09 03:59:15;;;;;;;11.17;8.57;;;1.80;99.90;;;;;;5027529;28;20382;-84
2021/04/09 04:01:40;;;;;;;13.93;9.00;;;1.70;99.90;;;;;;5019250;28;20399;-84
2021/04/09 04:04:06;;;;;;;11.63;8.27;;;1.70;99.90;;;;;;5012396;28;20904;-83
2021/04/09 04:06:31;;;;;;;14.10;9.33;;;1.70;99.90;;;;;;5012081;28;20382;-83
2021/04/09 04:08:57;;;;;;;10.80;8.63;;;1.70;99.90;;;;;;5010622;28;20741;-84
2021/04/09 04:11:23;;;;;;;11.85;8.18;;;1.70;99.90;;;;;;5012070;28;20375;-83
2021/04/09 04:13:48;;;;;;;11.83;7.97;;;1.70;99.90;;;;;;5011643;28;20383;-83
2021/04/09 04:16:14;;;;;;;11.30;8.20;;;1.60;99.90;;;;;;5009783;28;20398;-83
2021/04/09 04:18:39;;;;;;;11.03;7.90;;;1.60;99.90;;;;;;5010549;28;20383;-83
2021/04/09 04:21:05;;;;;;;14.00;8.38;;;1.60;99.90;;;;;;5010684;28;20382;-83
2021/04/09 04:23:31;;;;;;;10.68;7.57;;;1.60;99.90;;;;;;5011120;28;20375;-83
2021/04/09 04:25:56;;;;;;;11.23;8.05;;;1.60;99.90;;;;;;5009298;28;20387;-84
2021/04/09 04:28:26;;;;;;;10.87;8.60;;;1.60;99.90;;;;;;5010827;28;20864;-83
2021/04/09 04:30:52;;;;;;;12.73;8.30;;;1.60;99.90;;;;;;5011114;28;20473;-83
2021/04/09 04:33:18;;;;;;;10.23;8.45;;;1.50;99.90;;;;;;5011165;28;20486;-83
2021/04/09 04:35:44;;;;;;;11.05;8.32;;;1.60;99.90;;;;;;5010873;28;20383;-84
2021/04/09 04:38:10;;;;;;;11.02;8.25;;;1.60;99.90;;;;;;5010461;28;21191;-83
2021/04/09 04:40:36;;;;;;;11.40;8.20;;;1.60;99.90;;;;;;5010350;28;20383;-83
2021/04/09 04:43:02;;;;;;;11.38;8.10;;;1.60;99.90;;;;;;5010774;28;20375;-83
2021/04/09 04:45:27;;;;;;;13.27;8.27;;;1.60;99.90;;;;;;5009219;28;20379;-84
2021/04/09 04:47:53;;;;;;;12.60;8.17;;;1.70;99.90;;;;;;5010084;28;20379;-84
2021/04/09 04:50:18;;;;;;;11.23;8.03;;;1.80;99.90;;;;;;5012503;28;20494;-83
2021/04/09 04:52:44;;;;;;;13.27;8.93;;;1.80;99.90;;;;;;5014371;28;20370;-84
2021/04/09 04:55:10;;;;;;;15.07;9.35;;;1.70;99.90;;;;;;5014494;28;20363;-83
2021/04/09 04:57:36;;;;;;;12.77;8.45;;;1.80;99.90;;;;;;5012898;28;20803;-84
2021/04/09 05:00:03;;;;;;;12.43;8.33;;;1.80;99.90;;;;;;5029598;28;20567;-83
2021/04/09 05:02:28;;;;;;;11.43;8.32;;;1.90;99.90;;;;;;5014623;28;20382;-84
2021/04/09 05:04:54;;;;;;;13.37;8.40;;;1.90;99.90;;;;;;5014550;28;20379;-83
2021/04/09 05:07:19;;;;;;;13.30;7.75;;;1.90;99.90;;;;;;5014079;28;20367;-84
2021/04/09 05:09:45;;;;;;;12.43;8.10;;;2.10;99.90;;;;;;5028766;28;20399;-83
2021/04/09 05:12:11;;;;;;;12.30;8.13;;;2.20;99.90;;;;;;5013927;28;20379;-83
2021/04/09 05:14:37;;;;;;;12.53;7.47;;;;;;;;;;5013977;28;20530;-85
2021/04/09 05:17:03;;;;;;;9.88;7.10;;;;;;;;;;5013878;28;20864;-86
2021/04/09 05:19:29;;;;;;;11.98;7.45;;;;;;;;;;5014095;28;20379;-84
2021/04/09 05:21:55;;;;;;;12.90;8.23;;;;;;;;;;5014494;28;20441;-86
2021/04/09 05:24:21;;;;;;;10.48;7.53;;;;;;;;;;5012594;28;20390;-86
2021/04/09 05:26:46;;;;;;;10.02;8.02;;;;;;;;;;5013860;28;20375;-85
2021/04/09 05:29:13;;;;;;;11.98;7.57;;;;;;;;;;5013998;28;20375;-85
2021/04/09 05:31:39;;;;;;;13.80;8.20;;;;;;;;;;5012757;28;20371;-86
2021/04/09 05:34:04;;;;;;;12.70;8.30;;;;;;;;;;5014413;28;20422;-88
2021/04/09 05:36:30;;;;;;;10.73;8.07;;;;;;;;;;5013693;28;20849;-85
2021/04/09 05:38:57;;;;;;;11.45;7.82;;;;;;;;;;5013320;28;20703;-87
2021/04/09 05:41:22;;;;;;;14.27;7.72;;;3.60;99.90;;;;;;5014706;28;20380;-84
2021/04/09 05:43:48;;;;;;;11.32;8.27;;;3.60;99.90;;;;;;5014467;28;20885;-85
2021/04/09 05:46:15;;;;;;;14.65;7.93;;;3.70;99.90;;;;;;5013236;28;20375;-83
2021/04/09 05:48:41;;;;;;;11.18;7.68;;;3.70;99.90;;;;;;5014164;28;20908;-86
2021/04/09 05:51:06;;;;;;;9.55;8.00;;;3.80;99.90;;;;;;5014073;28;20407;-84
2021/04/09 05:53:33;;;;;;;11.38;7.88;;;3.90;99.90;;;;;;5029375;28;20881;-86
2021/04/09 05:55:58;;;;;;;10.13;8.15;;;4.00;99.90;;;;;;5012884;28;20379;-84
2021/04/09 05:58:24;;;;;;;11.75;7.90;;;4.00;99.90;;;;;;5013660;28;20383;-85
2021/04/09 06:00:49;;;;;;;12.05;8.32;;;3.90;99.90;;;;;;5028078;28;20788;-84
2021/04/09 06:03:15;;;;;;;9.87;7.83;;;4.00;99.90;;;;;;5013412;28;20442;-84
2021/04/09 06:05:41;;;;;;;11.10;7.50;;;4.10;99.90;;;;;;5013760;28;20383;-85
2021/04/09 06:08:10;;;;;;;13.07;8.50;;;4.30;99.90;;;;;;5013782;28;20483;-83
2021/04/09 06:10:37;;;;;;;12.40;7.75;;;4.50;99.90;;;;;;5028836;28;20399;-84
2021/04/09 06:13:03;;;;;;;11.25;7.82;;;4.80;99.90;;;;;;5013985;28;20371;-85
2021/04/09 06:15:29;;;;;;;12.07;8.30;;;5.10;99.90;;;;;;5013643;28;20383;-84
2021/04/09 06:17:55;;;;;;;11.80;8.02;;;5.30;99.90;;;;;;5013307;28;20375;-84
2021/04/09 06:20:20;;;;;;;10.88;7.40;;;5.40;99.90;;;;;;5029302;28;20391;-84
2021/04/09 06:22:47;;;;;;;13.35;8.25;;;5.70;99.90;;;;;;5013193;28;20375;-84
2021/04/09 06:25:14;;;;;;;13.25;8.32;;;5.80;99.90;;;;;;5013255;28;20857;-85
2021/04/09 06:27:40;;;;;;;11.63;7.72;;;5.80;99.90;;;;;;5013028;28;20480;-85
2021/04/09 06:30:06;;;;;;;12.43;8.07;;;5.90;99.90;;;;;;5011326;28;20435;-85
2021/04/09 06:32:32;;;;;;;11.77;7.65;;;6.00;99.90;;;;;;5011491;28;20454;-84
2021/04/09 06:34:57;;;;;;;10.82;7.53;;;6.20;99.90;;;;;;5012587;28;20500;-84
2021/04/09 06:37:23;;;;;;;11.13;7.67;;;6.40;99.90;;;;;;5012717;28;20746;-84
2021/04/09 06:39:48;;;;;;;10.27;7.90;;;6.60;99.90;;;;;;5030173;28;20466;-85
2021/04/09 06:42:18;;;;;;;10.85;7.47;;;6.70;99.90;;;;;;5016250;28;20390;-84
2021/04/09 06:44:47;;;;;;;14.40;7.63;;;6.70;99.90;;;;;;5030498;28;20814;-83
2021/04/09 06:47:13;;;;;;;12.77;8.00;;;6.60;99.90;;;;;;5014018;28;20956;-84
2021/04/09 06:49:42;;;;;;;10.57;7.68;;;6.40;99.90;;;;;;5014042;28;20494;-84
2021/04/09 06:52:13;;;;;;;11.57;7.85;;;6.40;99.90;;;;;;5013150;28;20429;-83
2021/04/09 06:54:41;;;;;;;11.10;7.90;;;6.60;99.90;;;;;;5011500;28;20419;-84
2021/04/09 06:57:09;;;;;;;9.60;8.00;;;6.60;99.90;;;;;;5012492;28;20375;-84
2021/04/09 06:59:39;;;;;;;11.52;8.10;;;6.70;99.90;;;;;;5012435;28;20434;-84
2021/04/09 07:02:06;;;;;;;10.85;7.55;;;6.70;99.90;;;;;;5011036;28;20379;-83
2021/04/09 07:04:34;;;;;;;11.67;7.80;;;6.90;99.90;;;;;;5010700;28;20375;-84
2021/04/09 07:06:59;;;;;;;13.20;8.63;;;7.20;99.90;;;;;;5011769;28;20375;-84
2021/04/09 07:09:25;;;;;;;12.23;8.60;;;7.50;99.90;;;;;;5012099;28;20429;-84
2021/04/09 07:11:52;;;;;;;9.47;7.87;;;7.80;99.90;;;;;;5012091;28;20383;-84
2021/04/09 07:14:20;;;;;;;12.00;7.85;;;8.30;99.90;;;;;;5011114;28;20519;-84
2021/04/09 07:17:03;;;;;;;11.05;7.65;;;8.50;99.90;;;;;;5011573;28;20835;-84
2021/04/09 07:19:35;;;;;;;10.87;8.23;;;8.40;99.90;;;;;;5011755;28;20799;-85
2021/04/09 07:22:05;;;;;;;10.80;7.45;;;8.30;99.90;;;;;;5011331;28;20493;-84
2021/04/09 07:24:32;;;;;;;11.77;7.85;;;8.30;99.90;;;;;;5011079;28;20441;-85
2021/04/09 07:26:59;;;;;;;10.67;8.40;;;8.40;99.90;;;;;;5011650;28;20431;-86
2021/04/09 07:29:30;;;;;;;12.80;7.82;;;8.50;99.90;;;;;;5011638;28;20437;-85
2021/04/09 07:32:15;;;;;;;11.68;8.23;;;8.50;99.90;;;;;;5010279;28;20948;-84
2021/04/09 07:34:50;;;;;;;13.13;8.40;;;8.40;99.90;;;;;;5011871;28;20410;-84
2021/04/09 07:37:16;;;;;;;11.13;8.23;;;8.50;99.90;;;;;;5011391;28;20398;-85
2021/04/09 07:39:44;;;;;;;13.57;8.13;;;8.70;99.90;;;;;;5010253;28;20383;-84
2021/04/09 07:42:11;;;;;;;10.68;7.72;;;8.90;99.90;;;;;;5011476;28;20371;-84
2021/04/09 07:44:39;;;;;;;13.88;8.48;;;9.30;99.60;;;;;;5010171;28;20379;-84
2021/04/09 07:47:12;;;;;;;12.32;8.20;;;9.60;99.80;;;;;;5011069;28;20386;-85
2021/04/09 07:49:39;;;;;;;11.43;8.00;;;9.70;98.40;;;;;;5011342;28;20398;-85
2021/04/09 07:52:11;;;;;;;11.98;8.13;;;9.80;97.40;;;;;;5011489;28;20884;-84
2021/04/09 07:54:38;;;;;;;12.18;8.02;;;9.50;98.10;;;;;;5010218;28;20375;-85
2021/04/09 07:57:04;;;;;;;11.63;8.10;;;9.50;98.00;;;;;;5011830;28;20729;-84
2021/04/09 07:59:45;;;;;;;11.60;7.90;;;9.60;97.90;;;;;;5011147;28;20398;-84
2021/04/09 08:02:12;;;;;;;10.02;7.68;;;9.80;98.60;;;;;;5012077;28;20729;-84
2021/04/09 08:04:39;;;;;;;10.73;7.50;;;9.80;96.90;;;;;;5029223;28;20396;-84
2021/04/09 08:07:05;;;;;;;13.40;8.18;;;9.90;97.00;;;;;;5030989;28;20779;-84
2021/04/09 08:09:50;;;;;;;11.32;7.47;;;10.00;96.50;;;;;;5029647;28;20405;-84
2021/04/09 08:12:31;;;;;;;11.82;8.13;;;10.00;96.70;;;;;;5030923;28;20403;-84
2021/04/09 08:15:20;;;;;;;11.57;8.57;;;9.90;95.70;;;;;;5030852;28;20860;-84
2021/04/09 08:18:08;;;;;;;12.32;7.80;;;10.00;96.60;;;;;;5030322;28;20450;-84
2021/04/09 08:20:36;;;;;;;11.73;7.95;;;10.10;96.60;;;;;;5030268;28;20458;-84
2021/04/09 08:23:11;;;;;;;12.75;8.18;;;10.10;96.70;;;;;;5030258;28;20720;-86
2021/04/09 08:25:38;;;;;;;12.23;7.85;;;10.10;96.80;;;;;;5025944;28;20451;-85
2021/04/09 08:28:06;;;;;;;12.52;7.72;;;10.20;96.40;;;;;;5029984;28;20381;-84
2021/04/09 08:30:32;;;;;;;9.45;7.57;;;10.10;96.00;;;;;;5030289;28;20485;-81
2021/04/09 08:32:58;;;;;;;12.07;7.90;;;10.00;95.90;;;;;;5026716;28;20800;-81
2021/04/09 08:35:25;;;;;;;12.38;8.05;;;10.20;96.30;;;;;;5010758;28;20450;-82
2021/04/09 08:37:53;;;;;;;10.55;8.15;;;10.40;97.20;;;;;;5010487;28;20865;-81
2021/04/09 08:40:19;;;;;;;11.52;7.50;;;10.50;95.60;;;;;;5013176;28;20395;-83
2021/04/09 08:42:45;;;;;;;14.10;8.23;;;10.60;96.30;;;;;;5030170;28;20436;-81
2021/04/09 08:45:13;;;;;;;12.25;7.95;;;10.70;96.10;;;;;;5028914;28;20385;-81
2021/04/09 08:47:40;;;;;;;13.35;7.70;;;10.80;96.20;;;;;;5029778;28;20492;-81
2021/04/09 08:50:09;;;;;;;11.38;7.90;;;10.90;95.10;;;;;;5029880;28;20400;-81
2021/04/09 08:52:42;;;;;;;10.68;8.13;;;11.10;95.10;;;;;;5029938;28;20389;-81
2021/04/09 08:55:10;;;;;;;12.88;7.97;;;11.10;94.70;;;;;;5021698;28;20884;-83
2021/04/09 08:57:38;;;;;;;11.45;8.13;;;11.40;94.80;;;;;;5027877;28;20406;-84
2021/04/09 09:00:07;;;;;;;11.18;8.02;;;11.40;94.00;;;;;;5028423;28;20392;-83
2021/04/09 09:02:40;;;;;;;11.67;7.80;;;11.60;94.90;;;;;;5029018;28;20377;-84
2021/04/09 09:05:11;;;;;;;12.23;8.10;;;11.50;92.60;;;;;;5021534;28;20400;-84
2021/04/09 09:07:51;;;;;;;12.48;8.38;;;11.30;93.60;;;;;;5017709;28;20395;-84
2021/04/09 09:10:26;;;;;;;12.90;8.27;;;11.30;94.40;;;;;;5026192;28;20907;-84
2021/04/09 09:13:12;;;;;;;12.60;7.93;;;11.50;93.80;;;;;;5030523;28;20382;-84
2021/04/09 09:15:43;;;;;;;9.95;8.25;;;11.60;93.60;;;;;;5027767;28;20799;-83
2021/04/09 09:18:24;;;;;;;12.00;8.95;;;11.80;93.40;;;;;;5029385;28;20390;-83
2021/04/09 09:21:14;;;;;;;16.20;9.23;;;12.10;93.80;;;;;;5010458;28;20445;-82
2021/04/09 09:24:01;;;;;;;14.43;9.25;;;12.40;91.70;;;;;;5011451;28;20939;-84
2021/04/09 09:26:30;;;;;;;15.60;8.75;;;12.20;91.90;;;;;;5010456;28;20458;-83
2021/04/09 09:29:21;;;;;;;14.20;9.43;;;12.00;92.00;;;;;;5010240;28;20394;-83
2021/04/09 09:31:57;;;;;;;14.63;9.55;;;12.10;92.30;;;;;;5008912;28;20394;-83
2021/04/09 09:34:32;;;;;;;11.52;9.30;;;11.90;92.20;;;;;;5010133;28;20375;-83
2021/04/09 09:37:07;;;;;;;14.02;9.45;;;11.90;92.20;;;;;;5029453;28;20393;-83
2021/04/09 09:39:49;;;;;;;12.48;8.65;;;12.10;92.10;;;;;;5012643;28;20389;-83
2021/04/09 09:42:21;;;;;;;13.10;9.30;;;12.50;92.50;;;;;;5013608;28;20379;-83
2021/04/09 09:44:48;;;;;;;11.77;8.52;;;12.90;92.20;;;;;;5031041;28;20374;-83
2021/04/09 09:47:14;;;;;;;11.98;8.70;;;13.00;91.80;;;;;;5013934;28;20387;-84
2021/04/09 09:50:00;;;;;;;11.67;8.17;;;13.10;91.20;;;;;;5013564;28;20465;-83
2021/04/09 09:53:03;;;;;;;13.13;8.68;;;13.20;90.70;;;;;;5015506;28;20393;-82
2021/04/09 09:55:36;;;;;;;12.65;8.63;;;13.40;91.10;;;;;;5013783;28;20850;-81
2021/04/09 09:58:11;;;;;;;12.40;8.47;;;13.50;90.60;;;;;;5027082;28;20412;-82
2021/04/09 10:00:53;;;;;;;10.85;8.77;;;13.40;88.20;;;;;;5019347;28;20393;-83
2021/04/09 10:03:29;;;;;;;11.50;8.63;;;13.30;89.70;;;;;;5032485;28;20377;-81
2021/04/09 10:05:58;;;;;;;12.05;8.95;;;13.20;90.30;;;;;;5021519;28;20378;-82
2021/04/09 10:08:25;;;;;;;11.88;7.80;;;13.40;89.60;;;;;;5029770;28;20504;-83
2021/04/09 10:10:56;;;;;;;17.00;8.20;;;13.60;90.70;;;;;;5032550;28;20393;-83
2021/04/09 10:13:26;;;;;;;11.82;8.55;;;13.60;88.70;;;;;;5032652;28;20938;-84
2021/04/09 10:16:05;;;;;;;12.35;7.90;;;13.40;88.80;;;;;;5031297;28;20709;-84
2021/04/09 10:18:31;;;;;;;11.80;8.18;;;13.50;89.20;;;;;;5032168;28;20366;-84
2021/04/09 10:21:30;;;;;;;10.02;8.05;;;13.60;90.30;;;;;;5033244;28;20870;-83
2021/04/09 10:24:10;;;;;;;10.68;7.97;;;14.20;89.80;;;;;;5033206;28;20907;-82
2021/04/09 10:26:37;;;;;;;12.33;7.50;;;14.40;87.70;;;;;;5016239;28;20496;-81
2021/04/09 10:29:20;;;;;;;10.57;7.50;;;14.30;87.40;;;;;;5022724;28;20393;-81
2021/04/09 10:31:46;;;;;;;11.90;7.78;;;14.40;84.90;;;;;;5012070;28;20477;-83
2021/04/09 10:34:11;;;;;;;15.32;8.45;;;14.20;84.20;;;;;;5022889;28;20380;-82
2021/04/09 10:36:39;;;;;;;9.40;7.55;;;14.00;87.50;;;;;;5015863;28;20373;-82
2021/04/09 10:39:13;;;;;;;12.87;7.63;;;13.80;89.10;;;;;;5028115;28;20413;-81
2021/04/09 10:41:43;;;;;;;10.10;7.22;;;13.90;88.50;;;;;;5028674;28;21158;-81
2021/04/09 10:44:14;;;;;;;10.23;7.78;;;14.10;89.50;;;;;;5030733;28;20460;-80
2021/04/09 10:46:42;;;;;;;12.32;8.63;;;14.10;86.00;;;;;;5029738;28;20397;-81
2021/04/09 10:49:16;;;;;;;11.35;8.27;;;13.70;86.10;;;;;;5029772;28;20370;-80
2021/04/09 10:51:45;;;;;;;14.02;8.18;;;13.70;89.30;;;;;;5029081;28;20385;-83
2021/04/09 10:54:16;;;;;;;13.20;7.75;;;13.80;90.30;;;;;;5029813;28;20460;-83
2021/04/09 10:56:49;;;;;;;12.85;7.78;;;14.00;88.80;;;;;;5040916;28;20826;-82
2021/04/09 10:59:15;;;;;;;11.48;8.30;;;14.10;90.50;;;;;;5031014;28;20860;-81
2021/04/09 11:01:41;;;;;;;11.30;8.05;;;14.00;88.70;;;;;;5031930;28;20404;-83
2021/04/09 11:04:07;;;;;;;9.75;7.60;;;14.00;87.00;;;;;;5032173;28;20868;-84
2021/04/09 11:06:33;;;;;;;12.60;8.10;;;14.00;89.40;;;;;;5027453;28;20476;-82
2021/04/09 11:09:09;;;;;;;9.80;7.55;;;14.00;88.60;;;;;;5021137;28;20383;-81
2021/04/09 11:11:37;;;;;;;11.90;7.77;;;14.20;89.30;;;;;;5029554;28;20401;-80
2021/04/09 11:14:06;;;;;;;12.45;7.18;;;14.00;88.50;;;;;;5026564;28;20390;-81
2021/04/09 11:16:47;;;;;;;12.82;7.20;;;13.80;88.30;;;;;;5027329;28;20409;-82
2021/04/09 11:19:27;;;;;;;35.67;22.27;;;13.80;87.80;;;;;;5027440;28;20439;-81
2021/04/09 11:21:57;;;;;;;27.42;21.30;;;13.80;87.10;;;;;;5022881;28;20408;-83
2021/04/09 11:24:24;;;;;;;15.45;10.27;;;13.80;87.70;;;;;;5029448;28;20374;-81
2021/04/09 11:26:50;;;;;;;12.82;8.10;;;14.10;90.30;;;;;;5030231;28;20472;-82
2021/04/09 11:29:20;;;;;;;11.75;7.78;;;14.50;88.50;;;;;;5030701;28;20405;-81
2021/04/09 11:31:46;;;;;;;10.02;7.03;;;14.70;87.50;;;;;;5030682;28;20429;-81
2021/04/09 11:34:16;;;;;;;9.98;6.90;;;14.50;84.90;;;;;;5030322;28;20830;-81
2021/04/09 11:36:50;;;;;;;11.57;7.20;;;14.30;86.40;;;;;;5027953;28;20372;-81
2021/04/09 11:39:18;;;;;;;9.90;7.57;;;14.40;88.90;;;;;;5029754;28;20412;-82
2021/04/09 11:41:56;;;;;;;14.23;9.13;;;14.20;87.00;;;;;;5030160;28;20369;-82
2021/04/09 11:44:28;;;;;;;12.18;8.00;;;14.10;88.50;;;;;;5027835;28;20796;-81
2021/04/09 11:47:09;;;;;;;14.20;7.88;;;14.10;88.40;;;;;;5030075;28;20456;-81
2021/04/09 11:49:35;;;;;;;13.43;8.43;;;14.10;85.30;;;;;;5029244;28;22797;-81
2021/04/09 11:52:03;;;;;;;12.25;7.32;;;14.00;85.30;;;;;;5029859;28;20472;-81
2021/04/09 11:54:37;;;;;;;12.70;8.13;;;13.90;87.80;;;;;;5030018;28;20366;-81
2021/04/09 11:57:04;;;;;;;10.53;7.83;;;14.00;88.10;;;;;;5027135;28;20891;-81
2021/04/09 11:59:35;;;;;;;9.80;7.57;;;14.10;86.80;;;;;;5028804;28;20420;-82
2021/04/09 12:02:21;;;;;;;14.40;8.13;;;14.40;89.30;;;;;;5029869;28;20515;-81
2021/04/09 12:04:48;;;;;;;14.80;8.48;;;14.30;85.50;;;;;;5034350;28;20532;-82
2021/04/09 12:07:23;;;;;;;13.90;9.77;;;14.20;85.90;;;;;;5029138;28;20469;-82
2021/04/09 12:09:52;;;;;;;14.27;8.77;;;14.10;86.30;;;;;;5029307;28;20400;-82
2021/04/09 12:12:18;;;;;;;12.20;8.10;;;14.10;85.40;;;;;;5029413;28;20461;-82
2021/04/09 12:14:54;;;;;;;12.77;8.77;;;14.20;89.30;;;;;;5028473;28;20373;-82
2021/04/09 12:17:24;;;;;;;12.75;8.30;;;14.20;87.20;;;;;;5025270;28;20868;-82
2021/04/09 12:19:53;;;;;;;12.82;9.00;;;14.20;87.80;;;;;;5028494;28;20421;-82
2021/04/09 12:22:19;;;;;;;12.43;8.35;;;14.10;87.50;;;;;;5029572;28;20388;-82
2021/04/09 12:24:46;;;;;;;13.00;8.85;;;14.20;87.20;;;;;;5029244;28;20380;-82
2021/04/09 12:27:12;;;;;;;12.57;9.10;;;14.10;87.00;;;;;;5029210;28;20902;-82
2021/04/09 12:29:39;;;;;;;12.40;9.00;;;14.20;88.60;;;;;;5028988;28;20401;-82
2021/04/09 12:32:06;;;;;;;13.63;8.43;;;14.60;86.30;;;;;;5029180;28;20883;-82
2021/04/09 12:34:32;;;;;;;14.68;8.02;;;14.80;85.90;;;;;;5029182;28;20405;-82
2021/04/09 12:36:58;;;;;;;13.60;8.00;;;15.00;83.80;;;;;;5028821;28;20424;-83
2021/04/09 12:39:24;;;;;;;11.93;8.18;;;14.90;83.90;;;;;;5028776;28;20780;-82
2021/04/09 12:41:50;;;;;;;12.35;8.73;;;14.90;83.90;;;;;;5028777;28;20368;-82
2021/04/09 12:44:18;;;;;;;12.75;9.07;;;14.90;85.10;;;;;;5029142;28;20989;-82
2021/04/09 12:46:48;;;;;;;14.07;9.03;;;15.00;84.70;;;;;;5028798;28;20465;-82
2021/04/09 12:49:15;;;;;;;13.50;9.35;;;15.00;85.00;;;;;;5028662;28;20427;-82
2021/04/09 12:51:42;;;;;;;14.23;8.60;;;14.80;84.00;;;;;;5027747;28;20398;-82
2021/04/09 12:54:08;;;;;;;13.82;8.93;;;14.80;84.90;;;;;;5029191;28;20728;-82
2021/04/09 12:56:34;;;;;;;15.15;8.93;;;14.90;84.60;;;;;;5028971;28;20416;-82
2021/04/09 12:59:00;;;;;;;16.80;9.68;;;14.90;85.80;;;;;;5028356;28;20932;-82